• Join FlightAware (Why Join?)
  • Login
  • US Flag 
10:24PM EDT


 

Airport Tracker/Info


-or-


 

Live Flight TrackerFlight Track Log ✈ RPA4937 ✈ 08-May-2013 ✈ KEWR - KPWM

Flight Track Log - Related Links

Times and Time Zones

All times are in EDT time to prevent confusion due to time zone crossing. See the RPA4937 flight status page for this flight to view local times or setup timezone preferences in your user account.

Time Position Orientation Groundspeed Altitude Reporting Facility
EDT Latitude Longitude Course Direction KTS MPH feet Rate Location/Type
09:33AM 40.7333 -74.1333 37° Northeast 193 222 2,600  Level New York TRACON
09:35AM 40.9942 -74.1422 North  Level FlightAware Approximate
09:35AM 40.8543 -73.9844 North  Level Estimated
09:36AM 41.0984 -74.1335 North  Level FlightAware Approximate
09:36AM 40.9500 -74.1333 North 290 334 6,000  Level New York TRACON
09:37AM 41.1650 -74.0660 74° East  Level FlightAware Approximate
09:38AM 41.1949 -73.9384 37° Northeast  Level FlightAware Approximate
09:38AM 41.0647 -74.1083 North 279 321 6,000  Level Boston Center
09:39AM 41.1108 -74.0819 23° Northeast 255 293 6,000 900 Level Boston Center
09:40AM 41.1828 -74.0203 33° Northeast 249 287 7,900 2,100 Climbing Boston Center
09:41AM 41.2006 -73.9269 76° East 234 269 10,200 1,500 Climbing Boston Center
09:42AM 41.2206 -73.8419 73° East 257 296 10,900 900 Climbing Boston Center
09:43AM 41.2467 -73.7375 72° East 262 302 12,100 1,380 Climbing Boston Center
09:44AM 41.2644 -73.6469 75° East 269 310 13,700 1,620 Climbing Boston Center
09:45AM 41.3050 -73.5481 61° Northeast 275 316 15,400 1,440 Climbing Boston Center
09:46AM 41.3578 -73.4800 44° Northeast 281 323 16,600 1,200 Climbing Boston Center
09:47AM 41.4211 -73.3950 45° Northeast 292 336 17,900 1,200 Climbing Boston Center
09:48AM 41.4717 -73.3294 44° Northeast 292 336 19,100 1,140 Climbing Boston Center
09:49AM 41.5367 -73.2472 43° Northeast 292 336 20,200 1,020 Climbing Boston Center
09:50AM 41.6244 -73.2425 North 277 319 21,200 960 Climbing Boston Center
09:51AM 41.7139 -73.2522 355° North 291 335 22,200 1,020 Climbing Boston Center
09:52AM 41.8033 -73.2589 357° North 303 349 23,300 1,080 Climbing Boston Center
09:53AM 41.8889 -73.2656 357° North 308 354 24,400 840 Climbing Boston Center
09:54AM 41.9742 -73.2722 357° North 308 354 25,000 300 Climbing Boston Center
09:55AM 42.0639 -73.2761 358° North 308 354 25,000  Level Boston Center
09:56AM 42.1475 -73.2297 22° Northeast 309 356 25,000  Level Boston Center
09:57AM 42.2067 -73.1353 50° Northeast 308 354 25,000  Level Boston Center
09:58AM 42.2697 -73.0378 49° Northeast 320 368 25,000  Level Boston Center
09:59AM 42.3325 -72.9372 50° Northeast 335 386 25,000  Level Boston Center
10:00AM 42.3997 -72.8336 49° Northeast 363 418 25,000  Level Boston Center
10:01AM 42.4647 -72.7328 49° Northeast 357 411 25,000  Level Boston Center
10:02AM 42.5231 -72.6428 49° Northeast 357 411 25,000  Level Boston Center
10:03AM 42.5881 -72.5444 48° Northeast 357 411 25,000  Level Boston Center
10:04AM 42.6608 -72.4458 45° Northeast 357 411 25,000  Level Boston Center
10:05AM 42.7214 -72.3439 51° Northeast 357 411 25,000  Level Boston Center
10:06AM 42.7817 -72.2422 51° Northeast 357 411 25,000 -480 Level Boston Center
10:07AM 42.8439 -72.1372 51° Northeast 351 404 24,100 -780 Descending Boston Center
10:08AM 42.9103 -72.0375 48° Northeast 351 404 23,500 -960 Descending Boston Center
10:09AM 42.9725 -71.9378 50° Northeast 351 404 22,200 -1,440 Descending Boston Center
10:10AM 43.0386 -71.8350 49° Northeast 351 404 20,700 -1,500 Descending Boston Center
10:11AM 43.1025 -71.7319 50° Northeast 351 404 19,200 -1,440 Descending Boston Center
10:12AM 43.1686 -71.6203 51° Northeast 351 404 17,900 -1,380 Descending Boston Center
10:13AM 43.2261 -71.5283 49° Northeast 356 410 16,500 -1,500 Descending Boston Center
10:14AM 43.2983 -71.4158 49° Northeast 356 410 14,900 -1,500 Descending Boston Center
10:15AM 43.3536 -71.3236 50° Northeast 356 410 13,500 -1,500 Descending Boston Center
10:16AM 43.4131 -71.2225 51° Northeast 348 400 11,900 -1,260 Descending Boston Center
10:17AM 43.4639 -71.1042 59° Northeast 334 384 11,000 -480 Descending Boston Center
10:18AM 43.4856 -71.0006 74° East 316 364 11,000 -720 Level Boston Center
10:19AM 43.5131 -70.8797 73° East 300 345 9,600 -1,500 Descending Boston Center
10:20AM 43.5328 -70.7933 72° East 275 316 8,100 -1,620 Descending Boston Center
10:21AM 43.5581 -70.6867 72° East 263 303 6,400 -1,560 Descending Boston Center
10:22AM 43.5778 -70.6058 71° East 263 303 5,000 -1,500 Descending Boston Center
10:23AM 43.5928 -70.5050 78° East 241 277 3,400 -1,500 Descending Boston Center
10:24AM 43.5936 -70.4247 89° East 230 265 2,000 -840 Descending Boston Center
10:25AM 43.5919 -70.3331 91° East 230 265 1,800 -240 Descending Boston Center